sensor_id;sensor_type;location;lat;lon;timestamp;P1;durP1;ratioP1;P2;durP2;ratioP2
70920;SDS011;58572;48.110;19.838;2022-12-07T00:01:08;10.25;;;6.03;;
70920;SDS011;58572;48.110;19.838;2022-12-07T00:03:38;11.05;;;5.50;;
70920;SDS011;58572;48.110;19.838;2022-12-07T00:06:07;9.50;;;5.05;;
70920;SDS011;58572;48.110;19.838;2022-12-07T00:08:36;11.02;;;6.57;;
70920;SDS011;58572;48.110;19.838;2022-12-07T00:11:04;11.10;;;6.65;;
70920;SDS011;58572;48.110;19.838;2022-12-07T00:13:33;9.82;;;5.70;;
70920;SDS011;58572;48.110;19.838;2022-12-07T00:18:28;11.38;;;5.60;;
70920;SDS011;58572;48.110;19.838;2022-12-07T00:21:00;11.20;;;5.53;;
70920;SDS011;58572;48.110;19.838;2022-12-07T00:23:27;12.10;;;6.40;;
70920;SDS011;58572;48.110;19.838;2022-12-07T00:25:54;10.68;;;6.68;;
70920;SDS011;58572;48.110;19.838;2022-12-07T00:28:21;12.93;;;7.25;;
70920;SDS011;58572;48.110;19.838;2022-12-07T00:30:48;15.05;;;6.75;;
70920;SDS011;58572;48.110;19.838;2022-12-07T00:33:15;13.23;;;6.55;;
70920;SDS011;58572;48.110;19.838;2022-12-07T00:35:43;11.10;;;6.70;;
70920;SDS011;58572;48.110;19.838;2022-12-07T00:38:11;12.07;;;6.97;;
70920;SDS011;58572;48.110;19.838;2022-12-07T00:40:38;10.43;;;5.60;;
70920;SDS011;58572;48.110;19.838;2022-12-07T00:43:05;14.63;;;8.73;;
70920;SDS011;58572;48.110;19.838;2022-12-07T00:45:32;12.68;;;7.10;;
70920;SDS011;58572;48.110;19.838;2022-12-07T00:48:00;13.90;;;6.53;;
70920;SDS011;58572;48.110;19.838;2022-12-07T00:50:27;11.35;;;7.70;;
70920;SDS011;58572;48.110;19.838;2022-12-07T00:52:54;13.77;;;6.97;;
70920;SDS011;58572;48.110;19.838;2022-12-07T00:55:23;11.73;;;6.50;;
70920;SDS011;58572;48.110;19.838;2022-12-07T00:57:50;13.38;;;7.35;;
70920;SDS011;58572;48.110;19.838;2022-12-07T01:00:17;12.10;;;6.53;;
70920;SDS011;58572;48.110;19.838;2022-12-07T01:02:44;14.32;;;8.20;;
70920;SDS011;58572;48.110;19.838;2022-12-07T01:05:11;12.00;;;6.85;;
70920;SDS011;58572;48.110;19.838;2022-12-07T01:07:38;12.07;;;7.45;;
70920;SDS011;58572;48.110;19.838;2022-12-07T01:10:06;12.70;;;8.20;;
70920;SDS011;58572;48.110;19.838;2022-12-07T01:12:35;13.40;;;7.25;;
70920;SDS011;58572;48.110;19.838;2022-12-07T01:15:02;13.63;;;7.00;;
70920;SDS011;58572;48.110;19.838;2022-12-07T01:17:29;13.68;;;6.90;;
70920;SDS011;58572;48.110;19.838;2022-12-07T01:19:56;14.30;;;7.05;;
70920;SDS011;58572;48.110;19.838;2022-12-07T01:22:23;10.98;;;6.82;;
70920;SDS011;58572;48.110;19.838;2022-12-07T01:24:50;13.55;;;8.00;;
70920;SDS011;58572;48.110;19.838;2022-12-07T01:27:18;11.63;;;7.43;;
70920;SDS011;58572;48.110;19.838;2022-12-07T01:29:46;11.27;;;6.30;;
70920;SDS011;58572;48.110;19.838;2022-12-07T01:32:13;13.57;;;7.00;;
70920;SDS011;58572;48.110;19.838;2022-12-07T01:34:41;15.70;;;8.43;;
70920;SDS011;58572;48.110;19.838;2022-12-07T01:37:08;12.95;;;7.78;;
70920;SDS011;58572;48.110;19.838;2022-12-07T01:39:35;14.05;;;7.70;;
70920;SDS011;58572;48.110;19.838;2022-12-07T01:42:02;13.70;;;8.73;;
70920;SDS011;58572;48.110;19.838;2022-12-07T01:44:29;13.30;;;8.25;;
70920;SDS011;58572;48.110;19.838;2022-12-07T01:46:59;14.10;;;8.18;;
70920;SDS011;58572;48.110;19.838;2022-12-07T01:49:29;10.65;;;5.95;;
70920;SDS011;58572;48.110;19.838;2022-12-07T01:52:01;12.75;;;8.27;;
70920;SDS011;58572;48.110;19.838;2022-12-07T01:54:42;13.20;;;8.60;;
70920;SDS011;58572;48.110;19.838;2022-12-07T01:57:12;12.15;;;7.50;;
70920;SDS011;58572;48.110;19.838;2022-12-07T01:59:42;12.35;;;8.05;;
70920;SDS011;58572;48.110;19.838;2022-12-07T02:02:15;13.27;;;7.75;;
70920;SDS011;58572;48.110;19.838;2022-12-07T02:04:45;12.38;;;7.22;;
70920;SDS011;58572;48.110;19.838;2022-12-07T02:07:13;14.07;;;6.75;;
70920;SDS011;58572;48.110;19.838;2022-12-07T02:12:07;11.90;;;7.05;;
70920;SDS011;58572;48.110;19.838;2022-12-07T02:14:35;12.18;;;6.45;;
70920;SDS011;58572;48.110;19.838;2022-12-07T02:17:05;12.50;;;7.70;;
70920;SDS011;58572;48.110;19.838;2022-12-07T02:26:02;11.18;;;6.40;;
70920;SDS011;58572;48.110;19.838;2022-12-07T02:29:03;14.02;;;7.63;;
70920;SDS011;58572;48.110;19.838;2022-12-07T02:31:51;13.27;;;7.05;;
70920;SDS011;58572;48.110;19.838;2022-12-07T02:34:28;13.50;;;8.13;;
70920;SDS011;58572;48.110;19.838;2022-12-07T02:37:03;16.73;;;9.30;;
70920;SDS011;58572;48.110;19.838;2022-12-07T02:39:37;14.52;;;8.15;;
70920;SDS011;58572;48.110;19.838;2022-12-07T02:42:12;14.25;;;8.60;;
70920;SDS011;58572;48.110;19.838;2022-12-07T02:44:45;11.75;;;7.40;;
70920;SDS011;58572;48.110;19.838;2022-12-07T02:47:14;15.50;;;8.27;;
70920;SDS011;58572;48.110;19.838;2022-12-07T02:49:44;14.75;;;9.98;;
70920;SDS011;58572;48.110;19.838;2022-12-07T02:52:11;14.77;;;8.68;;
70920;SDS011;58572;48.110;19.838;2022-12-07T02:54:38;14.73;;;8.75;;
70920;SDS011;58572;48.110;19.838;2022-12-07T02:57:09;14.02;;;8.18;;
70920;SDS011;58572;48.110;19.838;2022-12-07T02:59:48;14.35;;;8.20;;
70920;SDS011;58572;48.110;19.838;2022-12-07T03:02:27;14.18;;;7.70;;
70920;SDS011;58572;48.110;19.838;2022-12-07T03:05:05;15.38;;;8.25;;
70920;SDS011;58572;48.110;19.838;2022-12-07T03:07:49;15.45;;;7.95;;
70920;SDS011;58572;48.110;19.838;2022-12-07T03:10:22;16.63;;;8.75;;
70920;SDS011;58572;48.110;19.838;2022-12-07T03:12:57;15.43;;;9.57;;
70920;SDS011;58572;48.110;19.838;2022-12-07T03:15:31;13.32;;;7.05;;
70920;SDS011;58572;48.110;19.838;2022-12-07T03:18:02;10.73;;;7.18;;
70920;SDS011;58572;48.110;19.838;2022-12-07T03:20:31;18.05;;;9.40;;
70920;SDS011;58572;48.110;19.838;2022-12-07T03:23:01;19.33;;;11.25;;
70920;SDS011;58572;48.110;19.838;2022-12-07T03:25:31;17.17;;;9.80;;
70920;SDS011;58572;48.110;19.838;2022-12-07T03:28:01;14.55;;;9.43;;
70920;SDS011;58572;48.110;19.838;2022-12-07T03:30:34;16.75;;;10.10;;
70920;SDS011;58572;48.110;19.838;2022-12-07T03:33:06;17.52;;;9.65;;
70920;SDS011;58572;48.110;19.838;2022-12-07T03:35:38;20.55;;;11.15;;
70920;SDS011;58572;48.110;19.838;2022-12-07T03:38:11;16.08;;;9.10;;
70920;SDS011;58572;48.110;19.838;2022-12-07T03:40:44;19.95;;;9.73;;
70920;SDS011;58572;48.110;19.838;2022-12-07T03:43:16;19.58;;;9.98;;
70920;SDS011;58572;48.110;19.838;2022-12-07T03:45:47;18.05;;;9.93;;
70920;SDS011;58572;48.110;19.838;2022-12-07T03:48:25;49.20;;;18.20;;
70920;SDS011;58572;48.110;19.838;2022-12-07T03:51:00;25.73;;;12.25;;
70920;SDS011;58572;48.110;19.838;2022-12-07T03:53:39;31.75;;;14.18;;
70920;SDS011;58572;48.110;19.838;2022-12-07T03:56:10;17.35;;;9.35;;
70920;SDS011;58572;48.110;19.838;2022-12-07T03:58:39;19.80;;;9.73;;
70920;SDS011;58572;48.110;19.838;2022-12-07T04:01:09;18.90;;;9.90;;
70920;SDS011;58572;48.110;19.838;2022-12-07T04:03:36;15.40;;;8.82;;
70920;SDS011;58572;48.110;19.838;2022-12-07T04:06:03;15.55;;;8.55;;
70920;SDS011;58572;48.110;19.838;2022-12-07T04:08:31;21.88;;;8.80;;
70920;SDS011;58572;48.110;19.838;2022-12-07T04:10:58;19.42;;;10.25;;
70920;SDS011;58572;48.110;19.838;2022-12-07T04:13:25;15.10;;;7.85;;
70920;SDS011;58572;48.110;19.838;2022-12-07T04:15:55;17.50;;;7.88;;
70920;SDS011;58572;48.110;19.838;2022-12-07T04:18:23;15.27;;;8.40;;
70920;SDS011;58572;48.110;19.838;2022-12-07T04:20:50;18.48;;;8.90;;
70920;SDS011;58572;48.110;19.838;2022-12-07T04:23:17;15.20;;;9.43;;
70920;SDS011;58572;48.110;19.838;2022-12-07T04:25:47;15.98;;;9.60;;
70920;SDS011;58572;48.110;19.838;2022-12-07T04:28:14;15.93;;;7.25;;
70920;SDS011;58572;48.110;19.838;2022-12-07T04:30:41;15.45;;;9.15;;
70920;SDS011;58572;48.110;19.838;2022-12-07T04:33:08;15.32;;;8.15;;
70920;SDS011;58572;48.110;19.838;2022-12-07T04:35:37;13.48;;;7.78;;
70920;SDS011;58572;48.110;19.838;2022-12-07T04:38:04;14.70;;;8.80;;
70920;SDS011;58572;48.110;19.838;2022-12-07T04:40:31;13.95;;;8.38;;
70920;SDS011;58572;48.110;19.838;2022-12-07T04:42:58;12.77;;;6.35;;
70920;SDS011;58572;48.110;19.838;2022-12-07T04:45:25;18.42;;;10.45;;
70920;SDS011;58572;48.110;19.838;2022-12-07T04:47:52;19.05;;;8.88;;
70920;SDS011;58572;48.110;19.838;2022-12-07T04:50:20;15.68;;;9.52;;
70920;SDS011;58572;48.110;19.838;2022-12-07T04:52:48;14.70;;;8.50;;
70920;SDS011;58572;48.110;19.838;2022-12-07T04:55:15;15.85;;;9.65;;
70920;SDS011;58572;48.110;19.838;2022-12-07T04:57:43;14.63;;;8.65;;
70920;SDS011;58572;48.110;19.838;2022-12-07T05:00:10;16.20;;;9.23;;
70920;SDS011;58572;48.110;19.838;2022-12-07T05:02:38;18.13;;;9.48;;
70920;SDS011;58572;48.110;19.838;2022-12-07T05:05:06;16.20;;;8.73;;
70920;SDS011;58572;48.110;19.838;2022-12-07T05:07:33;18.23;;;8.07;;
70920;SDS011;58572;48.110;19.838;2022-12-07T05:10:03;16.58;;;8.38;;
70920;SDS011;58572;48.110;19.838;2022-12-07T05:12:30;14.98;;;8.75;;
70920;SDS011;58572;48.110;19.838;2022-12-07T05:14:57;15.93;;;9.55;;
70920;SDS011;58572;48.110;19.838;2022-12-07T05:17:25;15.43;;;8.30;;
70920;SDS011;58572;48.110;19.838;2022-12-07T05:19:52;12.15;;;7.18;;
70920;SDS011;58572;48.110;19.838;2022-12-07T05:22:19;14.05;;;7.68;;
70920;SDS011;58572;48.110;19.838;2022-12-07T05:24:46;13.95;;;8.18;;
70920;SDS011;58572;48.110;19.838;2022-12-07T05:27:15;13.15;;;7.38;;
70920;SDS011;58572;48.110;19.838;2022-12-07T05:29:42;14.60;;;7.75;;
70920;SDS011;58572;48.110;19.838;2022-12-07T05:32:09;10.05;;;4.93;;
70920;SDS011;58572;48.110;19.838;2022-12-07T05:34:36;14.93;;;8.27;;
70920;SDS011;58572;48.110;19.838;2022-12-07T05:37:03;13.15;;;7.40;;
70920;SDS011;58572;48.110;19.838;2022-12-07T05:39:30;13.15;;;8.02;;
70920;SDS011;58572;48.110;19.838;2022-12-07T05:41:57;12.77;;;7.72;;
70920;SDS011;58572;48.110;19.838;2022-12-07T05:44:46;14.93;;;8.00;;
70920;SDS011;58572;48.110;19.838;2022-12-07T05:47:14;13.27;;;7.13;;
70920;SDS011;58572;48.110;19.838;2022-12-07T05:49:41;14.35;;;7.50;;
70920;SDS011;58572;48.110;19.838;2022-12-07T05:52:08;13.52;;;7.72;;
70920;SDS011;58572;48.110;19.838;2022-12-07T05:54:35;20.63;;;9.43;;
70920;SDS011;58572;48.110;19.838;2022-12-07T05:57:02;11.90;;;7.20;;
70920;SDS011;58572;48.110;19.838;2022-12-07T05:59:29;14.90;;;8.25;;
70920;SDS011;58572;48.110;19.838;2022-12-07T06:01:57;12.35;;;6.97;;
70920;SDS011;58572;48.110;19.838;2022-12-07T06:04:26;16.42;;;7.53;;
70920;SDS011;58572;48.110;19.838;2022-12-07T06:06:55;13.80;;;7.15;;
70920;SDS011;58572;48.110;19.838;2022-12-07T06:09:23;13.18;;;8.50;;
70920;SDS011;58572;48.110;19.838;2022-12-07T06:11:51;11.85;;;7.78;;
70920;SDS011;58572;48.110;19.838;2022-12-07T06:14:35;12.30;;;7.88;;
70920;SDS011;58572;48.110;19.838;2022-12-07T06:17:04;11.75;;;6.97;;
70920;SDS011;58572;48.110;19.838;2022-12-07T06:19:31;13.15;;;7.53;;
70920;SDS011;58572;48.110;19.838;2022-12-07T06:21:59;13.27;;;6.70;;
70920;SDS011;58572;48.110;19.838;2022-12-07T06:24:26;12.57;;;7.00;;
70920;SDS011;58572;48.110;19.838;2022-12-07T06:26:53;14.15;;;8.45;;
70920;SDS011;58572;48.110;19.838;2022-12-07T06:29:20;12.15;;;6.95;;
70920;SDS011;58572;48.110;19.838;2022-12-07T06:31:47;14.50;;;8.82;;
70920;SDS011;58572;48.110;19.838;2022-12-07T06:34:17;13.45;;;7.97;;
70920;SDS011;58572;48.110;19.838;2022-12-07T06:36:45;14.20;;;7.45;;
70920;SDS011;58572;48.110;19.838;2022-12-07T06:39:16;15.48;;;7.57;;
70920;SDS011;58572;48.110;19.838;2022-12-07T06:41:43;17.70;;;9.05;;
70920;SDS011;58572;48.110;19.838;2022-12-07T06:44:10;14.23;;;7.18;;
70920;SDS011;58572;48.110;19.838;2022-12-07T06:46:38;12.35;;;6.55;;
70920;SDS011;58572;48.110;19.838;2022-12-07T06:49:05;16.65;;;8.85;;
70920;SDS011;58572;48.110;19.838;2022-12-07T06:51:34;15.10;;;8.98;;
70920;SDS011;58572;48.110;19.838;2022-12-07T06:54:06;10.15;;;6.25;;
70920;SDS011;58572;48.110;19.838;2022-12-07T06:56:33;19.50;;;11.38;;
70920;SDS011;58572;48.110;19.838;2022-12-07T06:59:00;16.58;;;9.48;;
70920;SDS011;58572;48.110;19.838;2022-12-07T07:01:27;15.38;;;9.13;;
70920;SDS011;58572;48.110;19.838;2022-12-07T07:03:54;16.33;;;8.93;;
70920;SDS011;58572;48.110;19.838;2022-12-07T07:06:21;15.88;;;8.85;;
70920;SDS011;58572;48.110;19.838;2022-12-07T07:08:50;15.10;;;9.82;;
70920;SDS011;58572;48.110;19.838;2022-12-07T07:11:17;18.48;;;9.38;;
70920;SDS011;58572;48.110;19.838;2022-12-07T07:13:44;12.75;;;6.60;;
70920;SDS011;58572;48.110;19.838;2022-12-07T07:16:12;16.80;;;9.68;;
70920;SDS011;58572;48.110;19.838;2022-12-07T07:18:39;15.57;;;8.48;;
70920;SDS011;58572;48.110;19.838;2022-12-07T07:21:06;17.85;;;10.77;;
70920;SDS011;58572;48.110;19.838;2022-12-07T07:23:33;16.45;;;9.05;;
70920;SDS011;58572;48.110;19.838;2022-12-07T07:26:02;17.65;;;10.45;;
70920;SDS011;58572;48.110;19.838;2022-12-07T07:28:29;17.85;;;11.02;;
70920;SDS011;58572;48.110;19.838;2022-12-07T07:30:56;18.25;;;9.38;;
70920;SDS011;58572;48.110;19.838;2022-12-07T07:33:23;16.13;;;10.05;;
70920;SDS011;58572;48.110;19.838;2022-12-07T07:35:50;21.70;;;10.65;;
70920;SDS011;58572;48.110;19.838;2022-12-07T07:38:17;17.58;;;10.75;;
70920;SDS011;58572;48.110;19.838;2022-12-07T07:40:47;18.02;;;9.45;;
70920;SDS011;58572;48.110;19.838;2022-12-07T07:43:16;21.65;;;11.73;;
70920;SDS011;58572;48.110;19.838;2022-12-07T07:45:43;18.48;;;10.27;;
70920;SDS011;58572;48.110;19.838;2022-12-07T07:48:11;20.40;;;11.23;;
70920;SDS011;58572;48.110;19.838;2022-12-07T07:50:38;22.80;;;11.25;;
70920;SDS011;58572;48.110;19.838;2022-12-07T07:53:05;21.38;;;11.65;;
70920;SDS011;58572;48.110;19.838;2022-12-07T07:55:32;21.83;;;13.52;;
70920;SDS011;58572;48.110;19.838;2022-12-07T07:57:59;23.60;;;11.10;;
70920;SDS011;58572;48.110;19.838;2022-12-07T08:00:28;21.45;;;10.30;;
70920;SDS011;58572;48.110;19.838;2022-12-07T08:02:55;19.33;;;11.60;;
70920;SDS011;58572;48.110;19.838;2022-12-07T08:05:22;20.70;;;11.90;;
70920;SDS011;58572;48.110;19.838;2022-12-07T08:07:49;22.10;;;12.52;;
70920;SDS011;58572;48.110;19.838;2022-12-07T08:10:18;19.77;;;12.55;;
70920;SDS011;58572;48.110;19.838;2022-12-07T08:12:45;22.23;;;11.25;;
70920;SDS011;58572;48.110;19.838;2022-12-07T08:15:31;21.13;;;10.73;;
70920;SDS011;58572;48.110;19.838;2022-12-07T08:17:58;23.65;;;12.30;;
70920;SDS011;58572;48.110;19.838;2022-12-07T08:20:26;21.40;;;12.05;;
70920;SDS011;58572;48.110;19.838;2022-12-07T08:22:53;24.10;;;13.15;;
70920;SDS011;58572;48.110;19.838;2022-12-07T08:25:20;20.08;;;11.20;;
70920;SDS011;58572;48.110;19.838;2022-12-07T08:27:47;19.48;;;11.77;;
70920;SDS011;58572;48.110;19.838;2022-12-07T08:32:45;19.38;;;11.35;;
70920;SDS011;58572;48.110;19.838;2022-12-07T08:35:13;18.67;;;9.30;;
70920;SDS011;58572;48.110;19.838;2022-12-07T08:37:40;20.85;;;12.05;;
70920;SDS011;58572;48.110;19.838;2022-12-07T08:40:08;20.65;;;12.77;;
70920;SDS011;58572;48.110;19.838;2022-12-07T08:42:40;22.67;;;13.05;;
70920;SDS011;58572;48.110;19.838;2022-12-07T08:45:08;20.73;;;10.35;;
70920;SDS011;58572;48.110;19.838;2022-12-07T08:47:37;21.52;;;11.85;;
70920;SDS011;58572;48.110;19.838;2022-12-07T08:50:08;20.45;;;11.25;;
70920;SDS011;58572;48.110;19.838;2022-12-07T08:52:37;24.83;;;14.43;;
70920;SDS011;58572;48.110;19.838;2022-12-07T08:55:07;15.32;;;8.70;;
70920;SDS011;58572;48.110;19.838;2022-12-07T08:57:36;18.20;;;11.18;;
70920;SDS011;58572;48.110;19.838;2022-12-07T09:00:06;20.85;;;11.65;;
70920;SDS011;58572;48.110;19.838;2022-12-07T09:02:34;20.23;;;11.73;;
70920;SDS011;58572;48.110;19.838;2022-12-07T09:05:01;20.25;;;11.88;;
70920;SDS011;58572;48.110;19.838;2022-12-07T09:07:30;21.73;;;13.00;;
70920;SDS011;58572;48.110;19.838;2022-12-07T09:09:59;18.25;;;10.55;;
70920;SDS011;58572;48.110;19.838;2022-12-07T09:12:26;18.33;;;10.02;;
70920;SDS011;58572;48.110;19.838;2022-12-07T09:14:53;24.95;;;11.95;;
70920;SDS011;58572;48.110;19.838;2022-12-07T09:17:20;19.08;;;10.90;;
70920;SDS011;58572;48.110;19.838;2022-12-07T09:19:48;21.05;;;10.70;;
70920;SDS011;58572;48.110;19.838;2022-12-07T09:22:15;20.42;;;12.57;;
70920;SDS011;58572;48.110;19.838;2022-12-07T09:24:43;15.48;;;8.35;;
70920;SDS011;58572;48.110;19.838;2022-12-07T09:27:11;13.88;;;7.47;;
70920;SDS011;58572;48.110;19.838;2022-12-07T09:29:38;15.52;;;10.00;;
70920;SDS011;58572;48.110;19.838;2022-12-07T09:32:05;17.85;;;11.15;;
70920;SDS011;58572;48.110;19.838;2022-12-07T09:34:32;16.25;;;9.85;;
70920;SDS011;58572;48.110;19.838;2022-12-07T09:37:00;15.35;;;8.27;;
70920;SDS011;58572;48.110;19.838;2022-12-07T09:39:28;18.20;;;9.93;;
70920;SDS011;58572;48.110;19.838;2022-12-07T09:41:57;16.67;;;9.40;;
70920;SDS011;58572;48.110;19.838;2022-12-07T09:44:26;14.38;;;9.32;;
70920;SDS011;58572;48.110;19.838;2022-12-07T09:46:54;13.52;;;8.95;;
70920;SDS011;58572;48.110;19.838;2022-12-07T09:49:23;15.65;;;9.55;;
70920;SDS011;58572;48.110;19.838;2022-12-07T09:51:59;14.30;;;7.93;;
70920;SDS011;58572;48.110;19.838;2022-12-07T09:54:28;13.38;;;8.77;;
70920;SDS011;58572;48.110;19.838;2022-12-07T09:56:58;12.82;;;7.38;;
70920;SDS011;58572;48.110;19.838;2022-12-07T09:59:26;13.35;;;7.68;;
70920;SDS011;58572;48.110;19.838;2022-12-07T10:01:53;14.52;;;8.45;;
70920;SDS011;58572;48.110;19.838;2022-12-07T10:04:21;11.75;;;7.28;;
70920;SDS011;58572;48.110;19.838;2022-12-07T10:06:50;12.48;;;7.45;;
70920;SDS011;58572;48.110;19.838;2022-12-07T10:09:18;11.68;;;7.93;;
70920;SDS011;58572;48.110;19.838;2022-12-07T10:14:36;12.63;;;7.85;;
70920;SDS011;58572;48.110;19.838;2022-12-07T10:20:05;34.17;;;19.58;;
70920;SDS011;58572;48.110;19.838;2022-12-07T10:22:44;13.70;;;8.68;;
70920;SDS011;58572;48.110;19.838;2022-12-07T10:25:22;12.38;;;7.95;;
70920;SDS011;58572;48.110;19.838;2022-12-07T10:28:01;10.45;;;7.10;;
70920;SDS011;58572;48.110;19.838;2022-12-07T10:30:46;11.80;;;7.20;;
70920;SDS011;58572;48.110;19.838;2022-12-07T10:33:26;12.95;;;7.07;;
70920;SDS011;58572;48.110;19.838;2022-12-07T10:35:59;12.43;;;8.50;;
70920;SDS011;58572;48.110;19.838;2022-12-07T10:38:27;12.23;;;8.27;;
70920;SDS011;58572;48.110;19.838;2022-12-07T10:41:04;11.70;;;7.10;;
70920;SDS011;58572;48.110;19.838;2022-12-07T10:43:35;12.95;;;8.43;;
70920;SDS011;58572;48.110;19.838;2022-12-07T10:46:14;12.57;;;8.38;;
70920;SDS011;58572;48.110;19.838;2022-12-07T10:49:04;10.93;;;7.00;;
70920;SDS011;58572;48.110;19.838;2022-12-07T10:51:45;10.52;;;7.45;;
70920;SDS011;58572;48.110;19.838;2022-12-07T10:54:21;9.68;;;7.10;;
70920;SDS011;58572;48.110;19.838;2022-12-07T10:57:07;10.27;;;7.15;;
70920;SDS011;58572;48.110;19.838;2022-12-07T10:59:52;10.93;;;7.25;;
70920;SDS011;58572;48.110;19.838;2022-12-07T11:02:35;10.23;;;7.13;;
70920;SDS011;58572;48.110;19.838;2022-12-07T11:05:17;10.27;;;6.32;;
70920;SDS011;58572;48.110;19.838;2022-12-07T11:07:54;8.90;;;6.00;;
70920;SDS011;58572;48.110;19.838;2022-12-07T11:10:30;10.27;;;6.95;;
70920;SDS011;58572;48.110;19.838;2022-12-07T11:13:12;8.35;;;5.40;;
70920;SDS011;58572;48.110;19.838;2022-12-07T11:15:55;9.85;;;6.38;;
70920;SDS011;58572;48.110;19.838;2022-12-07T11:18:41;8.18;;;5.65;;
70920;SDS011;58572;48.110;19.838;2022-12-07T11:21:19;9.70;;;6.57;;
70920;SDS011;58572;48.110;19.838;2022-12-07T11:23:56;9.20;;;5.72;;
70920;SDS011;58572;48.110;19.838;2022-12-07T11:26:34;11.65;;;7.55;;
70920;SDS011;58572;48.110;19.838;2022-12-07T11:29:36;9.32;;;6.57;;
70920;SDS011;58572;48.110;19.838;2022-12-07T11:32:19;7.07;;;4.07;;
70920;SDS011;58572;48.110;19.838;2022-12-07T11:35:08;11.38;;;7.47;;
70920;SDS011;58572;48.110;19.838;2022-12-07T11:37:43;11.23;;;5.40;;
70920;SDS011;58572;48.110;19.838;2022-12-07T11:40:15;12.27;;;6.85;;
70920;SDS011;58572;48.110;19.838;2022-12-07T11:42:49;9.20;;;5.55;;
70920;SDS011;58572;48.110;19.838;2022-12-07T11:45:20;12.63;;;7.72;;
70920;SDS011;58572;48.110;19.838;2022-12-07T11:47:54;10.57;;;7.22;;
70920;SDS011;58572;48.110;19.838;2022-12-07T11:50:27;10.40;;;5.90;;
70920;SDS011;58572;48.110;19.838;2022-12-07T11:52:59;8.85;;;6.65;;
70920;SDS011;58572;48.110;19.838;2022-12-07T11:55:32;11.15;;;6.28;;
70920;SDS011;58572;48.110;19.838;2022-12-07T11:58:12;11.85;;;7.65;;
70920;SDS011;58572;48.110;19.838;2022-12-07T12:00:48;8.52;;;5.25;;
70920;SDS011;58572;48.110;19.838;2022-12-07T12:03:22;9.90;;;5.93;;
70920;SDS011;58572;48.110;19.838;2022-12-07T12:05:57;12.15;;;7.43;;
70920;SDS011;58572;48.110;19.838;2022-12-07T12:08:25;10.45;;;5.85;;
70920;SDS011;58572;48.110;19.838;2022-12-07T12:11:00;10.05;;;6.13;;
70920;SDS011;58572;48.110;19.838;2022-12-07T12:13:43;8.77;;;5.95;;
70920;SDS011;58572;48.110;19.838;2022-12-07T12:16:38;9.90;;;5.55;;
70920;SDS011;58572;48.110;19.838;2022-12-07T12:19:31;10.50;;;7.30;;
70920;SDS011;58572;48.110;19.838;2022-12-07T12:22:03;11.38;;;6.78;;
70920;SDS011;58572;48.110;19.838;2022-12-07T12:24:38;12.80;;;6.35;;
70920;SDS011;58572;48.110;19.838;2022-12-07T12:27:10;9.55;;;5.88;;
70920;SDS011;58572;48.110;19.838;2022-12-07T12:29:50;10.18;;;5.78;;
70920;SDS011;58572;48.110;19.838;2022-12-07T12:32:21;9.65;;;6.22;;
70920;SDS011;58572;48.110;19.838;2022-12-07T12:34:59;10.70;;;6.70;;
70920;SDS011;58572;48.110;19.838;2022-12-07T12:37:42;9.75;;;6.28;;
70920;SDS011;58572;48.110;19.838;2022-12-07T12:49:30;8.75;;;4.95;;
70920;SDS011;58572;48.110;19.838;2022-12-07T12:55:18;9.60;;;5.05;;
70920;SDS011;58572;48.110;19.838;2022-12-07T13:00:49;9.18;;;4.70;;
70920;SDS011;58572;48.110;19.838;2022-12-07T13:03:54;8.18;;;5.22;;
70920;SDS011;58572;48.110;19.838;2022-12-07T13:06:31;8.40;;;5.20;;
70920;SDS011;58572;48.110;19.838;2022-12-07T13:09:03;8.50;;;4.40;;
70920;SDS011;58572;48.110;19.838;2022-12-07T13:11:33;16.00;;;4.35;;
70920;SDS011;58572;48.110;19.838;2022-12-07T13:17:08;7.25;;;3.90;;
70920;SDS011;58572;48.110;19.838;2022-12-07T13:25:17;9.25;;;4.65;;
70920;SDS011;58572;48.110;19.838;2022-12-07T13:27:54;7.85;;;4.22;;
70920;SDS011;58572;48.110;19.838;2022-12-07T13:30:27;6.85;;;4.50;;
70920;SDS011;58572;48.110;19.838;2022-12-07T13:32:56;9.88;;;4.82;;
70920;SDS011;58572;48.110;19.838;2022-12-07T13:35:29;8.38;;;3.97;;
70920;SDS011;58572;48.110;19.838;2022-12-07T13:37:58;6.88;;;4.93;;
70920;SDS011;58572;48.110;19.838;2022-12-07T13:40:25;8.02;;;4.78;;
70920;SDS011;58572;48.110;19.838;2022-12-07T13:43:00;9.13;;;5.22;;
70920;SDS011;58572;48.110;19.838;2022-12-07T13:45:29;8.40;;;5.97;;
70920;SDS011;58572;48.110;19.838;2022-12-07T13:48:16;8.02;;;5.38;;
70920;SDS011;58572;48.110;19.838;2022-12-07T13:50:52;8.63;;;4.93;;
70920;SDS011;58572;48.110;19.838;2022-12-07T13:53:21;9.45;;;6.00;;
70920;SDS011;58572;48.110;19.838;2022-12-07T13:58:18;7.32;;;4.35;;
70920;SDS011;58572;48.110;19.838;2022-12-07T14:00:45;8.27;;;4.22;;
70920;SDS011;58572;48.110;19.838;2022-12-07T14:03:31;9.30;;;5.60;;
70920;SDS011;58572;48.110;19.838;2022-12-07T14:06:06;9.07;;;5.90;;
70920;SDS011;58572;48.110;19.838;2022-12-07T14:08:44;9.48;;;5.38;;
70920;SDS011;58572;48.110;19.838;2022-12-07T14:11:16;8.55;;;4.95;;
70920;SDS011;58572;48.110;19.838;2022-12-07T14:13:54;9.80;;;5.28;;
70920;SDS011;58572;48.110;19.838;2022-12-07T14:16:26;9.10;;;5.43;;
70920;SDS011;58572;48.110;19.838;2022-12-07T14:18:57;8.43;;;5.03;;
70920;SDS011;58572;48.110;19.838;2022-12-07T14:21:26;9.25;;;5.55;;
70920;SDS011;58572;48.110;19.838;2022-12-07T14:26:44;10.38;;;5.82;;
70920;SDS011;58572;48.110;19.838;2022-12-07T14:29:29;3.75;;;2.03;;
70920;SDS011;58572;48.110;19.838;2022-12-07T14:31:58;8.80;;;4.80;;
70920;SDS011;58572;48.110;19.838;2022-12-07T14:34:54;7.63;;;4.65;;
70920;SDS011;58572;48.110;19.838;2022-12-07T14:37:26;9.18;;;5.50;;
70920;SDS011;58572;48.110;19.838;2022-12-07T14:39:55;7.78;;;4.88;;
70920;SDS011;58572;48.110;19.838;2022-12-07T14:42:23;8.98;;;5.30;;
70920;SDS011;58572;48.110;19.838;2022-12-07T14:44:55;8.48;;;4.30;;
70920;SDS011;58572;48.110;19.838;2022-12-07T14:47:22;6.60;;;4.45;;
70920;SDS011;58572;48.110;19.838;2022-12-07T14:49:51;7.05;;;4.38;;
70920;SDS011;58572;48.110;19.838;2022-12-07T14:52:19;8.82;;;5.53;;
70920;SDS011;58572;48.110;19.838;2022-12-07T14:54:48;9.10;;;5.15;;
70920;SDS011;58572;48.110;19.838;2022-12-07T14:57:15;9.68;;;6.28;;
70920;SDS011;58572;48.110;19.838;2022-12-07T14:59:42;9.80;;;5.50;;
70920;SDS011;58572;48.110;19.838;2022-12-07T15:02:11;8.60;;;4.93;;
70920;SDS011;58572;48.110;19.838;2022-12-07T15:04:39;9.43;;;4.90;;
70920;SDS011;58572;48.110;19.838;2022-12-07T15:07:10;7.47;;;4.60;;
70920;SDS011;58572;48.110;19.838;2022-12-07T15:09:42;8.27;;;4.65;;
70920;SDS011;58572;48.110;19.838;2022-12-07T15:12:09;7.78;;;4.55;;
70920;SDS011;58572;48.110;19.838;2022-12-07T15:14:36;8.13;;;5.07;;
70920;SDS011;58572;48.110;19.838;2022-12-07T15:17:03;19.10;;;7.90;;
70920;SDS011;58572;48.110;19.838;2022-12-07T15:19:33;41.10;;;17.77;;
70920;SDS011;58572;48.110;19.838;2022-12-07T15:22:00;30.88;;;13.18;;
70920;SDS011;58572;48.110;19.838;2022-12-07T15:24:27;18.17;;;9.32;;
70920;SDS011;58572;48.110;19.838;2022-12-07T15:26:54;73.55;;;29.35;;
70920;SDS011;58572;48.110;19.838;2022-12-07T15:29:21;22.95;;;10.15;;
70920;SDS011;58572;48.110;19.838;2022-12-07T15:31:48;15.07;;;6.63;;